sensor_id;sensor_type;location;lat;lon;timestamp;pressure;altitude;pressure_sealevel;temperature;humidity
21234;BME280;10774;42.178;26.578;2023-03-26T00:01:04;99189.41;;;14.27;100.00
21234;BME280;10774;42.178;26.578;2023-03-26T00:03:32;99166.94;;;14.17;100.00
21234;BME280;10774;42.178;26.578;2023-03-26T00:06:02;99179.75;;;14.25;100.00
21234;BME280;10774;42.178;26.578;2023-03-26T00:08:28;99175.63;;;14.30;100.00
21234;BME280;10774;42.178;26.578;2023-03-26T00:10:54;99183.72;;;14.30;100.00
21234;BME280;10774;42.178;26.578;2023-03-26T00:13:19;99187.88;;;14.34;100.00
21234;BME280;10774;42.178;26.578;2023-03-26T00:15:45;99167.66;;;14.38;100.00
21234;BME280;10774;42.178;26.578;2023-03-26T00:18:10;99156.88;;;14.38;100.00
21234;BME280;10774;42.178;26.578;2023-03-26T00:20:36;99159.00;;;14.25;100.00
21234;BME280;10774;42.178;26.578;2023-03-26T00:23:03;99181.59;;;14.44;100.00
21234;BME280;10774;42.178;26.578;2023-03-26T00:25:28;99171.84;;;13.43;100.00
21234;BME280;10774;42.178;26.578;2023-03-26T00:27:56;99184.59;;;13.20;100.00
21234;BME280;10774;42.178;26.578;2023-03-26T00:30:21;99198.16;;;13.08;100.00
21234;BME280;10774;42.178;26.578;2023-03-26T00:32:47;99187.09;;;12.70;100.00
21234;BME280;10774;42.178;26.578;2023-03-26T00:35:12;99202.94;;;12.63;100.00
21234;BME280;10774;42.178;26.578;2023-03-26T00:37:38;99193.28;;;12.61;100.00
21234;BME280;10774;42.178;26.578;2023-03-26T00:40:08;99220.31;;;12.59;100.00
21234;BME280;10774;42.178;26.578;2023-03-26T00:42:36;99225.66;;;12.91;100.00
21234;BME280;10774;42.178;26.578;2023-03-26T00:45:04;99214.22;;;12.57;100.00
21234;BME280;10774;42.178;26.578;2023-03-26T00:47:30;99252.50;;;12.93;100.00
21234;BME280;10774;42.178;26.578;2023-03-26T00:49:55;99270.69;;;13.00;100.00
21234;BME280;10774;42.178;26.578;2023-03-26T00:52:22;99257.50;;;13.18;100.00
21234;BME280;10774;42.178;26.578;2023-03-26T00:54:50;99236.34;;;12.93;100.00
21234;BME280;10774;42.178;26.578;2023-03-26T00:57:17;99224.56;;;12.73;100.00
21234;BME280;10774;42.178;26.578;2023-03-26T00:59:44;99246.38;;;12.59;100.00
21234;BME280;10774;42.178;26.578;2023-03-26T01:02:12;99244.91;;;12.66;100.00
21234;BME280;10774;42.178;26.578;2023-03-26T01:04:44;99223.66;;;13.04;100.00
21234;BME280;10774;42.178;26.578;2023-03-26T01:07:13;99240.75;;;13.36;100.00
21234;BME280;10774;42.178;26.578;2023-03-26T01:09:43;99244.59;;;13.01;100.00
21234;BME280;10774;42.178;26.578;2023-03-26T01:12:17;99247.16;;;13.34;100.00
21234;BME280;10774;42.178;26.578;2023-03-26T01:14:45;99262.16;;;13.16;100.00
21234;BME280;10774;42.178;26.578;2023-03-26T01:17:11;99252.31;;;12.73;100.00
21234;BME280;10774;42.178;26.578;2023-03-26T01:20:00;99237.75;;;12.97;100.00
21234;BME280;10774;42.178;26.578;2023-03-26T01:22:36;99236.88;;;13.28;100.00
21234;BME280;10774;42.178;26.578;2023-03-26T01:25:04;99231.28;;;13.41;100.00
21234;BME280;10774;42.178;26.578;2023-03-26T01:30:33;99232.09;;;13.63;100.00
21234;BME280;10774;42.178;26.578;2023-03-26T01:36:10;99215.22;;;13.70;100.00
21234;BME280;10774;42.178;26.578;2023-03-26T01:38:58;99220.09;;;13.76;100.00
21234;BME280;10774;42.178;26.578;2023-03-26T01:41:45;99216.72;;;13.84;100.00
21234;BME280;10774;42.178;26.578;2023-03-26T01:44:33;99224.34;;;13.79;100.00
21234;BME280;10774;42.178;26.578;2023-03-26T01:47:00;99211.13;;;13.76;100.00
21234;BME280;10774;42.178;26.578;2023-03-26T01:49:27;99210.56;;;13.72;100.00
21234;BME280;10774;42.178;26.578;2023-03-26T01:51:54;99205.88;;;13.74;100.00
21234;BME280;10774;42.178;26.578;2023-03-26T01:54:23;99204.19;;;13.73;100.00
21234;BME280;10774;42.178;26.578;2023-03-26T02:05:19;99220.88;;;13.57;100.00
21234;BME280;10774;42.178;26.578;2023-03-26T02:10:33;99211.47;;;13.52;100.00
21234;BME280;10774;42.178;26.578;2023-03-26T02:13:01;99225.00;;;13.62;100.00
21234;BME280;10774;42.178;26.578;2023-03-26T02:15:27;99230.09;;;13.65;100.00
21234;BME280;10774;42.178;26.578;2023-03-26T02:17:52;99231.94;;;12.60;100.00
21234;BME280;10774;42.178;26.578;2023-03-26T02:20:19;99228.72;;;12.34;100.00
21234;BME280;10774;42.178;26.578;2023-03-26T02:22:45;99239.56;;;12.75;100.00
21234;BME280;10774;42.178;26.578;2023-03-26T02:25:14;99242.28;;;12.75;100.00
21234;BME280;10774;42.178;26.578;2023-03-26T02:27:40;99251.88;;;12.89;100.00
21234;BME280;10774;42.178;26.578;2023-03-26T02:30:08;99250.03;;;12.90;100.00
21234;BME280;10774;42.178;26.578;2023-03-26T02:32:34;99267.72;;;12.82;100.00
21234;BME280;10774;42.178;26.578;2023-03-26T02:35:00;99266.97;;;12.80;100.00
21234;BME280;10774;42.178;26.578;2023-03-26T02:37:26;99277.44;;;12.95;100.00
21234;BME280;10774;42.178;26.578;2023-03-26T02:39:51;99264.03;;;12.83;100.00
21234;BME280;10774;42.178;26.578;2023-03-26T02:42:16;99277.84;;;12.90;100.00
21234;BME280;10774;42.178;26.578;2023-03-26T02:44:42;99267.97;;;12.79;100.00
21234;BME280;10774;42.178;26.578;2023-03-26T02:47:07;99258.91;;;12.80;100.00
21234;BME280;10774;42.178;26.578;2023-03-26T02:49:33;99262.81;;;12.88;100.00
21234;BME280;10774;42.178;26.578;2023-03-26T02:51:59;99279.44;;;12.93;100.00
21234;BME280;10774;42.178;26.578;2023-03-26T02:54:25;99273.75;;;12.96;100.00
21234;BME280;10774;42.178;26.578;2023-03-26T02:56:50;99285.22;;;13.09;100.00
21234;BME280;10774;42.178;26.578;2023-03-26T02:59:16;99284.00;;;13.02;100.00
21234;BME280;10774;42.178;26.578;2023-03-26T03:01:41;99286.22;;;13.08;100.00
21234;BME280;10774;42.178;26.578;2023-03-26T03:04:11;99273.31;;;12.91;100.00
21234;BME280;10774;42.178;26.578;2023-03-26T03:06:37;99290.22;;;12.93;100.00
21234;BME280;10774;42.178;26.578;2023-03-26T03:09:08;99296.25;;;13.06;100.00
21234;BME280;10774;42.178;26.578;2023-03-26T03:11:34;99277.19;;;12.98;100.00
21234;BME280;10774;42.178;26.578;2023-03-26T03:14:00;99297.47;;;13.13;100.00
21234;BME280;10774;42.178;26.578;2023-03-26T03:16:26;99264.91;;;13.05;100.00
21234;BME280;10774;42.178;26.578;2023-03-26T03:18:52;99298.16;;;13.26;100.00
21234;BME280;10774;42.178;26.578;2023-03-26T03:21:25;99290.28;;;13.34;100.00
21234;BME280;10774;42.178;26.578;2023-03-26T03:23:52;99301.97;;;13.45;100.00
21234;BME280;10774;42.178;26.578;2023-03-26T03:26:19;99306.31;;;13.36;100.00
21234;BME280;10774;42.178;26.578;2023-03-26T03:28:52;99284.53;;;13.28;100.00
21234;BME280;10774;42.178;26.578;2023-03-26T03:31:18;99311.63;;;13.47;100.00
21234;BME280;10774;42.178;26.578;2023-03-26T03:33:44;99290.91;;;13.27;100.00
21234;BME280;10774;42.178;26.578;2023-03-26T03:36:11;99280.84;;;13.08;100.00
21234;BME280;10774;42.178;26.578;2023-03-26T03:38:38;99305.94;;;13.08;100.00
21234;BME280;10774;42.178;26.578;2023-03-26T03:41:04;99292.03;;;12.92;100.00
21234;BME280;10774;42.178;26.578;2023-03-26T03:43:30;99280.19;;;12.83;100.00
21234;BME280;10774;42.178;26.578;2023-03-26T03:45:57;99289.94;;;12.96;100.00
21234;BME280;10774;42.178;26.578;2023-03-26T03:48:23;99324.91;;;13.07;100.00
21234;BME280;10774;42.178;26.578;2023-03-26T03:50:48;99319.88;;;13.14;100.00
21234;BME280;10774;42.178;26.578;2023-03-26T03:53:14;99345.88;;;13.36;100.00
21234;BME280;10774;42.178;26.578;2023-03-26T03:55:43;99338.78;;;12.59;100.00
21234;BME280;10774;42.178;26.578;2023-03-26T03:58:24;99352.56;;;12.77;100.00
21234;BME280;10774;42.178;26.578;2023-03-26T04:00:53;99349.00;;;12.88;100.00
21234;BME280;10774;42.178;26.578;2023-03-26T04:03:26;99363.41;;;12.98;100.00
21234;BME280;10774;42.178;26.578;2023-03-26T04:05:54;99367.97;;;12.75;100.00
21234;BME280;10774;42.178;26.578;2023-03-26T04:08:21;99393.28;;;12.95;100.00
21234;BME280;10774;42.178;26.578;2023-03-26T04:10:47;99389.13;;;12.91;100.00
21234;BME280;10774;42.178;26.578;2023-03-26T04:13:13;99393.41;;;12.93;100.00
21234;BME280;10774;42.178;26.578;2023-03-26T04:15:40;99383.69;;;13.13;100.00
21234;BME280;10774;42.178;26.578;2023-03-26T04:18:06;99389.59;;;12.96;100.00
21234;BME280;10774;42.178;26.578;2023-03-26T04:20:40;99358.69;;;12.79;100.00
21234;BME280;10774;42.178;26.578;2023-03-26T04:23:19;99398.44;;;12.98;100.00
21234;BME280;10774;42.178;26.578;2023-03-26T04:25:50;99406.75;;;12.95;100.00
21234;BME280;10774;42.178;26.578;2023-03-26T04:28:59;99411.38;;;13.04;100.00
21234;BME280;10774;42.178;26.578;2023-03-26T04:31:26;99398.72;;;13.16;100.00
21234;BME280;10774;42.178;26.578;2023-03-26T04:34:05;99384.16;;;13.07;100.00
21234;BME280;10774;42.178;26.578;2023-03-26T04:36:32;99388.50;;;12.98;100.00
21234;BME280;10774;42.178;26.578;2023-03-26T04:38:59;99400.31;;;13.18;100.00
21234;BME280;10774;42.178;26.578;2023-03-26T04:41:27;99410.34;;;13.16;100.00
21234;BME280;10774;42.178;26.578;2023-03-26T04:43:53;99414.28;;;13.12;100.00
21234;BME280;10774;42.178;26.578;2023-03-26T04:46:19;99400.09;;;13.10;100.00
21234;BME280;10774;42.178;26.578;2023-03-26T04:48:49;99387.19;;;12.93;100.00
21234;BME280;10774;42.178;26.578;2023-03-26T04:51:16;99392.56;;;12.93;100.00
21234;BME280;10774;42.178;26.578;2023-03-26T04:53:51;99380.75;;;13.05;100.00
21234;BME280;10774;42.178;26.578;2023-03-26T04:56:31;99397.69;;;12.96;100.00
21234;BME280;10774;42.178;26.578;2023-03-26T04:59:00;99384.81;;;12.45;100.00
21234;BME280;10774;42.178;26.578;2023-03-26T05:01:26;99407.69;;;12.28;100.00
21234;BME280;10774;42.178;26.578;2023-03-26T05:03:55;99386.03;;;12.52;100.00
21234;BME280;10774;42.178;26.578;2023-03-26T05:06:24;99410.25;;;12.52;100.00
21234;BME280;10774;42.178;26.578;2023-03-26T05:08:52;99402.03;;;12.53;100.00
21234;BME280;10774;42.178;26.578;2023-03-26T05:11:18;99406.53;;;12.75;100.00
21234;BME280;10774;42.178;26.578;2023-03-26T05:13:43;99408.28;;;12.76;100.00
21234;BME280;10774;42.178;26.578;2023-03-26T05:16:09;99413.00;;;12.95;100.00
21234;BME280;10774;42.178;26.578;2023-03-26T05:18:35;99397.16;;;13.02;100.00
21234;BME280;10774;42.178;26.578;2023-03-26T05:21:00;99391.63;;;13.15;100.00
21234;BME280;10774;42.178;26.578;2023-03-26T05:23:26;99402.41;;;13.26;100.00
21234;BME280;10774;42.178;26.578;2023-03-26T05:25:51;99408.88;;;13.34;100.00
21234;BME280;10774;42.178;26.578;2023-03-26T05:28:17;99412.81;;;13.30;100.00
21234;BME280;10774;42.178;26.578;2023-03-26T05:30:45;99427.41;;;13.49;100.00
21234;BME280;10774;42.178;26.578;2023-03-26T05:33:11;99426.59;;;13.69;100.00
21234;BME280;10774;42.178;26.578;2023-03-26T05:35:37;99435.25;;;13.52;100.00
21234;BME280;10774;42.178;26.578;2023-03-26T05:38:02;99420.53;;;13.56;100.00
21234;BME280;10774;42.178;26.578;2023-03-26T05:40:27;99432.66;;;13.82;100.00
21234;BME280;10774;42.178;26.578;2023-03-26T05:42:53;99425.66;;;13.80;100.00
21234;BME280;10774;42.178;26.578;2023-03-26T05:45:18;99432.66;;;14.03;100.00
21234;BME280;10774;42.178;26.578;2023-03-26T05:47:46;99432.38;;;14.06;100.00
21234;BME280;10774;42.178;26.578;2023-03-26T05:50:14;99433.13;;;14.08;100.00
21234;BME280;10774;42.178;26.578;2023-03-26T05:52:39;99431.25;;;14.09;100.00
21234;BME280;10774;42.178;26.578;2023-03-26T05:55:05;99433.59;;;14.23;100.00
21234;BME280;10774;42.178;26.578;2023-03-26T05:57:33;99432.81;;;14.32;100.00
21234;BME280;10774;42.178;26.578;2023-03-26T06:00:00;99456.63;;;14.48;100.00
21234;BME280;10774;42.178;26.578;2023-03-26T06:02:25;99444.34;;;14.65;100.00
21234;BME280;10774;42.178;26.578;2023-03-26T06:04:53;99435.88;;;14.79;100.00
21234;BME280;10774;42.178;26.578;2023-03-26T06:07:21;99456.38;;;14.91;100.00
21234;BME280;10774;42.178;26.578;2023-03-26T06:09:47;99450.00;;;15.02;100.00
21234;BME280;10774;42.178;26.578;2023-03-26T06:12:13;99439.50;;;15.09;100.00
21234;BME280;10774;42.178;26.578;2023-03-26T06:14:39;99443.06;;;15.29;100.00
21234;BME280;10774;42.178;26.578;2023-03-26T06:17:07;99460.38;;;15.66;100.00
21234;BME280;10774;42.178;26.578;2023-03-26T06:19:33;99448.66;;;15.37;100.00
21234;BME280;10774;42.178;26.578;2023-03-26T06:21:59;99462.72;;;15.21;100.00
21234;BME280;10774;42.178;26.578;2023-03-26T06:24:24;99466.81;;;15.06;100.00
21234;BME280;10774;42.178;26.578;2023-03-26T06:26:50;99462.84;;;14.70;100.00
21234;BME280;10774;42.178;26.578;2023-03-26T06:29:16;99462.63;;;14.92;100.00
21234;BME280;10774;42.178;26.578;2023-03-26T06:31:41;99461.50;;;14.33;100.00
21234;BME280;10774;42.178;26.578;2023-03-26T06:34:07;99476.84;;;13.70;100.00
21234;BME280;10774;42.178;26.578;2023-03-26T06:36:32;99483.41;;;13.56;100.00
21234;BME280;10774;42.178;26.578;2023-03-26T06:38:58;99479.63;;;13.48;100.00
21234;BME280;10774;42.178;26.578;2023-03-26T06:41:23;99469.91;;;13.24;100.00
21234;BME280;10774;42.178;26.578;2023-03-26T06:43:49;99486.78;;;13.38;100.00
21234;BME280;10774;42.178;26.578;2023-03-26T06:46:14;99476.72;;;13.40;100.00
21234;BME280;10774;42.178;26.578;2023-03-26T06:48:40;99473.38;;;14.00;100.00
21234;BME280;10774;42.178;26.578;2023-03-26T06:51:10;99472.06;;;14.36;100.00
21234;BME280;10774;42.178;26.578;2023-03-26T06:53:35;99483.59;;;14.69;100.00
21234;BME280;10774;42.178;26.578;2023-03-26T06:56:00;99479.56;;;14.54;100.00
21234;BME280;10774;42.178;26.578;2023-03-26T06:58:27;99472.19;;;14.56;98.67
21234;BME280;10774;42.178;26.578;2023-03-26T07:00:53;99471.34;;;14.96;99.42
21234;BME280;10774;42.178;26.578;2023-03-26T07:03:19;99481.91;;;15.08;96.91
21234;BME280;10774;42.178;26.578;2023-03-26T07:05:45;99484.03;;;15.05;96.74
21234;BME280;10774;42.178;26.578;2023-03-26T07:08:11;99470.69;;;15.23;93.98
21234;BME280;10774;42.178;26.578;2023-03-26T07:10:36;99480.44;;;14.95;93.93
21234;BME280;10774;42.178;26.578;2023-03-26T07:13:02;99477.59;;;14.35;93.93
21234;BME280;10774;42.178;26.578;2023-03-26T07:15:27;99474.16;;;14.12;93.87
21234;BME280;10774;42.178;26.578;2023-03-26T07:17:53;99486.72;;;14.23;87.01
21234;BME280;10774;42.178;26.578;2023-03-26T07:20:18;99476.94;;;14.22;89.71
21234;BME280;10774;42.178;26.578;2023-03-26T07:22:44;99484.84;;;14.34;89.37
21234;BME280;10774;42.178;26.578;2023-03-26T07:25:10;99477.50;;;14.67;92.22
21234;BME280;10774;42.178;26.578;2023-03-26T07:30:14;99459.34;;;14.48;91.45
21234;BME280;10774;42.178;26.578;2023-03-26T07:35:22;99488.00;;;14.39;78.71
21234;BME280;10774;42.178;26.578;2023-03-26T07:45:42;99497.88;;;14.29;80.77
21234;BME280;10774;42.178;26.578;2023-03-26T07:48:18;99479.16;;;14.37;85.48
21234;BME280;10774;42.178;26.578;2023-03-26T07:50:46;99499.28;;;14.33;81.93
21234;BME280;10774;42.178;26.578;2023-03-26T07:53:12;99501.69;;;14.48;81.18
21234;BME280;10774;42.178;26.578;2023-03-26T07:58:58;99501.91;;;14.45;83.92
21234;BME280;10774;42.178;26.578;2023-03-26T08:10:37;99491.66;;;14.90;83.61
21234;BME280;10774;42.178;26.578;2023-03-26T08:13:14;99491.59;;;14.80;80.34
21234;BME280;10774;42.178;26.578;2023-03-26T08:15:48;99494.88;;;15.34;78.67
21234;BME280;10774;42.178;26.578;2023-03-26T08:18:33;99490.66;;;15.41;81.97
21234;BME280;10774;42.178;26.578;2023-03-26T08:21:10;99494.97;;;16.02;76.01
21234;BME280;10774;42.178;26.578;2023-03-26T08:24:00;99486.66;;;16.32;71.17
21234;BME280;10774;42.178;26.578;2023-03-26T08:31:39;99506.66;;;17.15;71.01
21234;BME280;10774;42.178;26.578;2023-03-26T08:34:07;99492.91;;;17.17;64.67
21234;BME280;10774;42.178;26.578;2023-03-26T08:36:33;99497.06;;;16.93;67.07
21234;BME280;10774;42.178;26.578;2023-03-26T08:38:59;99483.31;;;16.58;67.49
21234;BME280;10774;42.178;26.578;2023-03-26T08:55:59;99485.56;;;16.06;72.91
21234;BME280;10774;42.178;26.578;2023-03-26T09:04:04;99487.09;;;16.84;62.48
21234;BME280;10774;42.178;26.578;2023-03-26T09:20:24;99461.63;;;17.22;52.97
21234;BME280;10774;42.178;26.578;2023-03-26T09:26:03;99471.16;;;17.09;47.76
21234;BME280;10774;42.178;26.578;2023-03-26T09:37:24;99454.13;;;16.89;44.31
21234;BME280;10774;42.178;26.578;2023-03-26T09:40:15;99445.28;;;17.14;43.05
21234;BME280;10774;42.178;26.578;2023-03-26T09:48:19;99445.13;;;17.16;40.32
21234;BME280;10774;42.178;26.578;2023-03-26T09:51:10;99440.44;;;17.08;38.88
21234;BME280;10774;42.178;26.578;2023-03-26T09:59:02;99441.03;;;17.47;40.00
21234;BME280;10774;42.178;26.578;2023-03-26T10:17:35;99448.63;;;17.97;40.63
21234;BME280;10774;42.178;26.578;2023-03-26T10:34:03;99422.66;;;19.23;37.63
21234;BME280;10774;42.178;26.578;2023-03-26T10:36:36;99421.78;;;19.15;38.22
21234;BME280;10774;42.178;26.578;2023-03-26T10:39:26;99441.69;;;18.73;37.64
21234;BME280;10774;42.178;26.578;2023-03-26T10:42:04;99432.03;;;18.52;38.41
21234;BME280;10774;42.178;26.578;2023-03-26T10:53:11;99413.38;;;18.58;37.44
21234;BME280;10774;42.178;26.578;2023-03-26T10:55:59;99415.53;;;18.72;37.67
21234;BME280;10774;42.178;26.578;2023-03-26T10:58:28;99415.38;;;18.47;36.73
21234;BME280;10774;42.178;26.578;2023-03-26T11:03:53;99418.53;;;18.09;36.93
21234;BME280;10774;42.178;26.578;2023-03-26T11:06:40;99412.09;;;18.44;36.40
21234;BME280;10774;42.178;26.578;2023-03-26T11:12:28;99410.59;;;18.49;36.32
21234;BME280;10774;42.178;26.578;2023-03-26T11:15:06;99408.16;;;19.06;35.59
21234;BME280;10774;42.178;26.578;2023-03-26T11:23:01;99396.72;;;19.62;34.04
21234;BME280;10774;42.178;26.578;2023-03-26T11:31:00;99392.19;;;19.12;34.00
21234;BME280;10774;42.178;26.578;2023-03-26T11:33:35;99388.66;;;19.27;33.98
21234;BME280;10774;42.178;26.578;2023-03-26T11:36:06;99383.75;;;19.47;33.29
21234;BME280;10774;42.178;26.578;2023-03-26T11:38:46;99398.41;;;19.95;32.96
21234;BME280;10774;42.178;26.578;2023-03-26T11:41:17;99391.28;;;19.78;32.85
21234;BME280;10774;42.178;26.578;2023-03-26T11:43:48;99398.56;;;20.02;32.54
21234;BME280;10774;42.178;26.578;2023-03-26T11:46:19;99367.78;;;19.93;33.14
21234;BME280;10774;42.178;26.578;2023-03-26T11:48:49;99355.16;;;19.27;33.78
21234;BME280;10774;42.178;26.578;2023-03-26T11:51:33;99375.41;;;19.41;33.15
21234;BME280;10774;42.178;26.578;2023-03-26T11:54:03;99354.84;;;19.46;33.86
21234;BME280;10774;42.178;26.578;2023-03-26T11:56:30;99383.19;;;19.11;33.96
21234;BME280;10774;42.178;26.578;2023-03-26T12:01:28;99353.47;;;19.58;35.02
21234;BME280;10774;42.178;26.578;2023-03-26T12:04:03;99366.72;;;19.45;34.17
21234;BME280;10774;42.178;26.578;2023-03-26T12:06:29;99356.81;;;19.03;33.33
21234;BME280;10774;42.178;26.578;2023-03-26T12:08:57;99326.56;;;19.06;33.70
21234;BME280;10774;42.178;26.578;2023-03-26T12:11:25;99337.97;;;19.26;32.36
21234;BME280;10774;42.178;26.578;2023-03-26T12:13:57;99346.66;;;19.46;32.39
21234;BME280;10774;42.178;26.578;2023-03-26T12:16:24;99343.97;;;19.79;31.30
21234;BME280;10774;42.178;26.578;2023-03-26T12:19:04;99349.50;;;19.12;32.05
21234;BME280;10774;42.178;26.578;2023-03-26T12:21:43;99335.22;;;19.02;32.97
21234;BME280;10774;42.178;26.578;2023-03-26T12:24:30;99339.09;;;20.22;31.73
21234;BME280;10774;42.178;26.578;2023-03-26T12:27:00;99342.09;;;20.43;32.45
21234;BME280;10774;42.178;26.578;2023-03-26T12:29:27;99351.19;;;20.75;31.76
21234;BME280;10774;42.178;26.578;2023-03-26T12:34:34;99348.13;;;20.30;31.75
21234;BME280;10774;42.178;26.578;2023-03-26T12:37:03;99335.44;;;19.90;32.07
21234;BME280;10774;42.178;26.578;2023-03-26T12:39:37;99321.44;;;20.01;32.51
21234;BME280;10774;42.178;26.578;2023-03-26T12:42:05;99328.47;;;20.43;33.38
21234;BME280;10774;42.178;26.578;2023-03-26T12:44:50;99294.41;;;20.47;32.90
21234;BME280;10774;42.178;26.578;2023-03-26T12:47:27;99312.94;;;19.96;32.38
21234;BME280;10774;42.178;26.578;2023-03-26T12:49:55;99310.03;;;20.45;32.67
21234;BME280;10774;42.178;26.578;2023-03-26T12:57:35;99298.25;;;20.14;32.77
21234;BME280;10774;42.178;26.578;2023-03-26T13:14:03;99313.28;;;20.57;31.58
21234;BME280;10774;42.178;26.578;2023-03-26T13:16:50;99304.06;;;20.10;31.02
21234;BME280;10774;42.178;26.578;2023-03-26T13:22:25;99294.63;;;21.00;31.76
21234;BME280;10774;42.178;26.578;2023-03-26T13:28:19;99281.06;;;22.64;28.44
21234;BME280;10774;42.178;26.578;2023-03-26T13:36:06;99286.00;;;21.11;28.59
21234;BME280;10774;42.178;26.578;2023-03-26T13:46:53;99267.31;;;20.77;27.58
21234;BME280;10774;42.178;26.578;2023-03-26T13:49:31;99293.09;;;21.81;27.72
21234;BME280;10774;42.178;26.578;2023-03-26T13:52:09;99284.59;;;22.28;27.28
21234;BME280;10774;42.178;26.578;2023-03-26T13:54:48;99282.31;;;22.83;26.33
21234;BME280;10774;42.178;26.578;2023-03-26T13:57:30;99272.22;;;22.47;26.60
21234;BME280;10774;42.178;26.578;2023-03-26T14:00:12;99288.88;;;23.46;26.67
21234;BME280;10774;42.178;26.578;2023-03-26T14:02:48;99289.00;;;22.44;26.72
21234;BME280;10774;42.178;26.578;2023-03-26T14:05:34;99284.44;;;22.51;26.68
21234;BME280;10774;42.178;26.578;2023-03-26T14:08:14;99285.00;;;22.61;26.40
21234;BME280;10774;42.178;26.578;2023-03-26T14:10:46;99302.50;;;21.40;26.88
21234;BME280;10774;42.178;26.578;2023-03-26T14:16:16;99290.28;;;21.74;26.64
21234;BME280;10774;42.178;26.578;2023-03-26T14:18:53;99297.88;;;20.72;27.69
21234;BME280;10774;42.178;26.578;2023-03-26T14:24:15;99291.91;;;21.83;26.51
21234;BME280;10774;42.178;26.578;2023-03-26T14:26:59;99301.03;;;20.84;26.24
21234;BME280;10774;42.178;26.578;2023-03-26T14:41:17;99292.19;;;19.87;28.16
21234;BME280;10774;42.178;26.578;2023-03-26T14:51:44;99298.31;;;19.81;28.40
21234;BME280;10774;42.178;26.578;2023-03-26T14:54:18;99289.84;;;19.76;27.69
21234;BME280;10774;42.178;26.578;2023-03-26T14:56:58;99287.09;;;19.84;28.37
21234;BME280;10774;42.178;26.578;2023-03-26T15:05:18;99281.16;;;22.56;24.48
21234;BME280;10774;42.178;26.578;2023-03-26T15:16:30;99281.34;;;24.39;23.37
21234;BME280;10774;42.178;26.578;2023-03-26T15:22:03;99296.91;;;22.54;24.75
21234;BME280;10774;42.178;26.578;2023-03-26T15:27:37;99282.03;;;23.35;24.46
21234;BME280;10774;42.178;26.578;2023-03-26T15:41:29;99276.84;;;25.80;21.88
21234;BME280;10774;42.178;26.578;2023-03-26T15:49:32;99280.78;;;27.52;20.62
21234;BME280;10774;42.178;26.578;2023-03-26T15:57:52;99284.41;;;25.12;22.53
21234;BME280;10774;42.178;26.578;2023-03-26T16:00:26;99280.63;;;25.92;21.84
21234;BME280;10774;42.178;26.578;2023-03-26T16:11:03;99289.63;;;22.61;24.48
21234;BME280;10774;42.178;26.578;2023-03-26T16:14:15;99293.50;;;21.78;25.47
21234;BME280;10774;42.178;26.578;2023-03-26T16:21:54;99285.47;;;20.61;26.97
21234;BME280;10774;42.178;26.578;2023-03-26T16:24:29;99276.69;;;19.88;27.72
21234;BME280;10774;42.178;26.578;2023-03-26T16:27:24;99276.53;;;18.91;29.71
21234;BME280;10774;42.178;26.578;2023-03-26T16:32:35;99271.47;;;18.38;31.31
21234;BME280;10774;42.178;26.578;2023-03-26T16:37:46;99265.47;;;17.66;31.58
21234;BME280;10774;42.178;26.578;2023-03-26T16:50:34;99300.53;;;17.77;33.14
21234;BME280;10774;42.178;26.578;2023-03-26T17:01:28;99308.50;;;18.05;35.58
21234;BME280;10774;42.178;26.578;2023-03-26T17:04:03;99326.34;;;17.63;36.04
21234;BME280;10774;42.178;26.578;2023-03-26T17:10:24;99333.94;;;17.60;36.08
21234;BME280;10774;42.178;26.578;2023-03-26T17:13:01;99333.69;;;17.09;36.98
21234;BME280;10774;42.178;26.578;2023-03-26T17:21:10;99327.41;;;17.27;36.86
21234;BME280;10774;42.178;26.578;2023-03-26T17:42:24;99385.13;;;16.09;40.62
21234;BME280;10774;42.178;26.578;2023-03-26T17:44:54;99388.94;;;16.16;40.37
21234;BME280;10774;42.178;26.578;2023-03-26T17:47:39;99400.03;;;16.23;40.32
21234;BME280;10774;42.178;26.578;2023-03-26T17:50:23;99397.50;;;16.02;41.25
21234;BME280;10774;42.178;26.578;2023-03-26T17:52:59;99394.72;;;15.74;40.72
21234;BME280;10774;42.178;26.578;2023-03-26T17:55:33;99411.78;;;16.04;40.65
21234;BME280;10774;42.178;26.578;2023-03-26T17:58:21;99397.31;;;15.66;41.30
21234;BME280;10774;42.178;26.578;2023-03-26T18:01:39;99413.06;;;15.90;41.47
21234;BME280;10774;42.178;26.578;2023-03-26T18:04:06;99412.34;;;15.59;43.09
21234;BME280;10774;42.178;26.578;2023-03-26T18:06:49;99412.66;;;15.56;42.98
21234;BME280;10774;42.178;26.578;2023-03-26T18:17:40;99408.19;;;15.06;41.89
21234;BME280;10774;42.178;26.578;2023-03-26T18:20:21;99433.50;;;14.96;42.95
21234;BME280;10774;42.178;26.578;2023-03-26T18:22:48;99433.06;;;14.90;42.39
21234;BME280;10774;42.178;26.578;2023-03-26T18:25:30;99420.47;;;14.70;42.88
21234;BME280;10774;42.178;26.578;2023-03-26T18:27:58;99416.00;;;14.90;42.80
21234;BME280;10774;42.178;26.578;2023-03-26T18:30:26;99412.97;;;14.43;42.98
21234;BME280;10774;42.178;26.578;2023-03-26T18:33:08;99413.06;;;14.62;43.95
21234;BME280;10774;42.178;26.578;2023-03-26T18:35:40;99419.25;;;14.84;44.24
21234;BME280;10774;42.178;26.578;2023-03-26T18:38:12;99425.41;;;15.05;44.32
21234;BME280;10774;42.178;26.578;2023-03-26T18:40:43;99439.34;;;15.01;44.37
21234;BME280;10774;42.178;26.578;2023-03-26T18:43:20;99437.75;;;14.88;44.74
21234;BME280;10774;42.178;26.578;2023-03-26T18:45:50;99444.50;;;14.63;45.35
21234;BME280;10774;42.178;26.578;2023-03-26T18:48:18;99437.25;;;14.64;45.64
21234;BME280;10774;42.178;26.578;2023-03-26T18:50:47;99444.09;;;14.68;45.56